sensor_id;sensor_type;location;lat;lon;timestamp;P1;durP1;ratioP1;P2;durP2;ratioP2
7807;SDS011;3949;49.254;8.894;2023-04-24T00:02:16;1.97;;;1.10;;
7807;SDS011;3949;49.254;8.894;2023-04-24T00:04:43;1.20;;;0.90;;
7807;SDS011;3949;49.254;8.894;2023-04-24T00:07:10;0.80;;;0.80;;
7807;SDS011;3949;49.254;8.894;2023-04-24T00:09:36;0.90;;;0.90;;
7807;SDS011;3949;49.254;8.894;2023-04-24T00:12:02;0.93;;;0.87;;
7807;SDS011;3949;49.254;8.894;2023-04-24T00:14:29;1.10;;;0.87;;
7807;SDS011;3949;49.254;8.894;2023-04-24T00:16:55;2.60;;;1.23;;
7807;SDS011;3949;49.254;8.894;2023-04-24T00:19:21;2.43;;;0.90;;
7807;SDS011;3949;49.254;8.894;2023-04-24T00:21:47;1.33;;;0.83;;
7807;SDS011;3949;49.254;8.894;2023-04-24T00:24:17;1.20;;;0.90;;
7807;SDS011;3949;49.254;8.894;2023-04-24T00:26:43;0.87;;;0.77;;
7807;SDS011;3949;49.254;8.894;2023-04-24T00:29:09;1.20;;;0.90;;
7807;SDS011;3949;49.254;8.894;2023-04-24T00:31:35;1.27;;;0.77;;
7807;SDS011;3949;49.254;8.894;2023-04-24T00:34:01;2.07;;;0.70;;
7807;SDS011;3949;49.254;8.894;2023-04-24T00:36:27;0.80;;;0.60;;
7807;SDS011;3949;49.254;8.894;2023-04-24T00:38:54;1.03;;;0.77;;
7807;SDS011;3949;49.254;8.894;2023-04-24T00:41:20;1.23;;;0.67;;
7807;SDS011;3949;49.254;8.894;2023-04-24T00:43:46;2.60;;;1.00;;
7807;SDS011;3949;49.254;8.894;2023-04-24T00:46:13;0.87;;;0.70;;
7807;SDS011;3949;49.254;8.894;2023-04-24T00:48:39;1.43;;;1.10;;
7807;SDS011;3949;49.254;8.894;2023-04-24T00:51:05;2.17;;;0.87;;
7807;SDS011;3949;49.254;8.894;2023-04-24T00:53:31;0.87;;;0.87;;
7807;SDS011;3949;49.254;8.894;2023-04-24T00:55:58;1.20;;;0.90;;
7807;SDS011;3949;49.254;8.894;2023-04-24T00:58:24;1.27;;;0.93;;
7807;SDS011;3949;49.254;8.894;2023-04-24T01:00:50;3.37;;;1.23;;
7807;SDS011;3949;49.254;8.894;2023-04-24T01:03:18;1.97;;;0.77;;
7807;SDS011;3949;49.254;8.894;2023-04-24T01:05:44;1.03;;;1.00;;
7807;SDS011;3949;49.254;8.894;2023-04-24T01:08:10;0.77;;;0.70;;
7807;SDS011;3949;49.254;8.894;2023-04-24T01:10:36;2.13;;;1.13;;
7807;SDS011;3949;49.254;8.894;2023-04-24T01:13:04;1.77;;;1.03;;
7807;SDS011;3949;49.254;8.894;2023-04-24T01:15:30;1.70;;;1.17;;
7807;SDS011;3949;49.254;8.894;2023-04-24T01:17:56;2.93;;;1.57;;
7807;SDS011;3949;49.254;8.894;2023-04-24T01:20:22;1.00;;;0.70;;
7807;SDS011;3949;49.254;8.894;2023-04-24T01:22:48;1.00;;;0.77;;
7807;SDS011;3949;49.254;8.894;2023-04-24T01:25:14;0.80;;;0.70;;
7807;SDS011;3949;49.254;8.894;2023-04-24T01:27:40;1.47;;;0.80;;
7807;SDS011;3949;49.254;8.894;2023-04-24T01:30:07;3.83;;;0.93;;
7807;SDS011;3949;49.254;8.894;2023-04-24T01:32:33;1.90;;;0.80;;
7807;SDS011;3949;49.254;8.894;2023-04-24T01:35:00;1.67;;;1.00;;
7807;SDS011;3949;49.254;8.894;2023-04-24T01:37:26;1.63;;;0.90;;
7807;SDS011;3949;49.254;8.894;2023-04-24T01:39:52;0.83;;;0.80;;
7807;SDS011;3949;49.254;8.894;2023-04-24T01:42:18;0.90;;;0.80;;
7807;SDS011;3949;49.254;8.894;2023-04-24T01:44:44;1.00;;;0.83;;
7807;SDS011;3949;49.254;8.894;2023-04-24T01:47:10;1.50;;;0.90;;
7807;SDS011;3949;49.254;8.894;2023-04-24T01:49:37;1.43;;;0.80;;
7807;SDS011;3949;49.254;8.894;2023-04-24T01:52:03;1.13;;;0.90;;
7807;SDS011;3949;49.254;8.894;2023-04-24T01:54:29;6.53;;;0.90;;
7807;SDS011;3949;49.254;8.894;2023-04-24T01:56:56;0.50;;;0.50;;
7807;SDS011;3949;49.254;8.894;2023-04-24T01:59:21;1.33;;;0.93;;
7807;SDS011;3949;49.254;8.894;2023-04-24T02:01:49;2.13;;;1.20;;
7807;SDS011;3949;49.254;8.894;2023-04-24T02:04:15;2.83;;;1.00;;
7807;SDS011;3949;49.254;8.894;2023-04-24T02:06:41;0.83;;;0.70;;
7807;SDS011;3949;49.254;8.894;2023-04-24T02:09:07;2.10;;;1.40;;
7807;SDS011;3949;49.254;8.894;2023-04-24T02:11:33;2.57;;;0.83;;
7807;SDS011;3949;49.254;8.894;2023-04-24T02:13:59;0.87;;;0.70;;
7807;SDS011;3949;49.254;8.894;2023-04-24T02:16:25;1.37;;;0.83;;
7807;SDS011;3949;49.254;8.894;2023-04-24T02:18:50;2.63;;;1.40;;
7807;SDS011;3949;49.254;8.894;2023-04-24T02:21:16;1.30;;;0.80;;
7807;SDS011;3949;49.254;8.894;2023-04-24T02:23:42;3.00;;;1.20;;
7807;SDS011;3949;49.254;8.894;2023-04-24T02:26:09;1.13;;;0.93;;
7807;SDS011;3949;49.254;8.894;2023-04-24T02:28:35;2.63;;;1.10;;
7807;SDS011;3949;49.254;8.894;2023-04-24T02:31:01;1.97;;;0.90;;
7807;SDS011;3949;49.254;8.894;2023-04-24T02:33:27;2.10;;;1.20;;
7807;SDS011;3949;49.254;8.894;2023-04-24T02:35:53;2.10;;;1.00;;
7807;SDS011;3949;49.254;8.894;2023-04-24T02:38:19;0.90;;;0.87;;
7807;SDS011;3949;49.254;8.894;2023-04-24T02:40:45;2.43;;;1.93;;
7807;SDS011;3949;49.254;8.894;2023-04-24T02:43:11;1.93;;;1.00;;
7807;SDS011;3949;49.254;8.894;2023-04-24T02:45:37;0.90;;;0.87;;
7807;SDS011;3949;49.254;8.894;2023-04-24T02:48:03;1.97;;;1.10;;
7807;SDS011;3949;49.254;8.894;2023-04-24T02:50:29;0.97;;;0.80;;
7807;SDS011;3949;49.254;8.894;2023-04-24T02:52:55;1.47;;;1.13;;
7807;SDS011;3949;49.254;8.894;2023-04-24T02:55:21;1.70;;;0.80;;
7807;SDS011;3949;49.254;8.894;2023-04-24T02:57:47;1.93;;;1.37;;
7807;SDS011;3949;49.254;8.894;2023-04-24T03:00:13;2.10;;;1.20;;
7807;SDS011;3949;49.254;8.894;2023-04-24T03:02:39;3.87;;;1.10;;
7807;SDS011;3949;49.254;8.894;2023-04-24T03:05:05;3.43;;;1.10;;
7807;SDS011;3949;49.254;8.894;2023-04-24T03:07:32;2.47;;;1.40;;
7807;SDS011;3949;49.254;8.894;2023-04-24T03:09:58;2.67;;;1.27;;
7807;SDS011;3949;49.254;8.894;2023-04-24T03:12:24;1.47;;;1.00;;
7807;SDS011;3949;49.254;8.894;2023-04-24T03:14:50;1.77;;;1.00;;
7807;SDS011;3949;49.254;8.894;2023-04-24T03:17:16;1.33;;;0.90;;
7807;SDS011;3949;49.254;8.894;2023-04-24T03:19:42;2.00;;;0.77;;
7807;SDS011;3949;49.254;8.894;2023-04-24T03:22:08;1.00;;;0.93;;
7807;SDS011;3949;49.254;8.894;2023-04-24T03:24:34;0.90;;;0.90;;
7807;SDS011;3949;49.254;8.894;2023-04-24T03:27:00;2.37;;;1.47;;
7807;SDS011;3949;49.254;8.894;2023-04-24T03:29:26;1.00;;;0.90;;
7807;SDS011;3949;49.254;8.894;2023-04-24T03:31:52;1.27;;;1.00;;
7807;SDS011;3949;49.254;8.894;2023-04-24T03:34:18;1.90;;;0.80;;
7807;SDS011;3949;49.254;8.894;2023-04-24T03:36:44;2.27;;;0.93;;
7807;SDS011;3949;49.254;8.894;2023-04-24T03:39:12;1.13;;;0.90;;
7807;SDS011;3949;49.254;8.894;2023-04-24T03:41:38;1.80;;;0.90;;
7807;SDS011;3949;49.254;8.894;2023-04-24T03:44:04;1.10;;;0.80;;
7807;SDS011;3949;49.254;8.894;2023-04-24T03:46:30;2.00;;;1.27;;
7807;SDS011;3949;49.254;8.894;2023-04-24T03:48:56;1.60;;;1.40;;
7807;SDS011;3949;49.254;8.894;2023-04-24T03:51:22;1.93;;;1.50;;
7807;SDS011;3949;49.254;8.894;2023-04-24T03:53:48;2.33;;;1.40;;
7807;SDS011;3949;49.254;8.894;2023-04-24T03:56:15;1.90;;;1.47;;
7807;SDS011;3949;49.254;8.894;2023-04-24T03:58:41;2.77;;;1.70;;
7807;SDS011;3949;49.254;8.894;2023-04-24T04:01:06;1.77;;;1.67;;
7807;SDS011;3949;49.254;8.894;2023-04-24T04:03:32;1.77;;;1.67;;
7807;SDS011;3949;49.254;8.894;2023-04-24T04:05:59;1.70;;;1.60;;
7807;SDS011;3949;49.254;8.894;2023-04-24T04:08:25;1.87;;;1.77;;
7807;SDS011;3949;49.254;8.894;2023-04-24T04:10:51;1.90;;;1.60;;
7807;SDS011;3949;49.254;8.894;2023-04-24T04:13:17;3.17;;;2.20;;
7807;SDS011;3949;49.254;8.894;2023-04-24T04:15:43;1.80;;;1.70;;
7807;SDS011;3949;49.254;8.894;2023-04-24T04:18:09;3.17;;;1.73;;
7807;SDS011;3949;49.254;8.894;2023-04-24T04:20:35;2.37;;;2.07;;
7807;SDS011;3949;49.254;8.894;2023-04-24T04:23:01;2.17;;;2.00;;
7807;SDS011;3949;49.254;8.894;2023-04-24T04:25:27;3.23;;;2.10;;
7807;SDS011;3949;49.254;8.894;2023-04-24T04:27:54;1.90;;;1.80;;
7807;SDS011;3949;49.254;8.894;2023-04-24T04:30:20;4.23;;;1.90;;
7807;SDS011;3949;49.254;8.894;2023-04-24T04:32:46;2.43;;;2.20;;
7807;SDS011;3949;49.254;8.894;2023-04-24T04:35:12;2.40;;;2.03;;
7807;SDS011;3949;49.254;8.894;2023-04-24T04:37:38;2.63;;;2.07;;
7807;SDS011;3949;49.254;8.894;2023-04-24T04:40:05;2.10;;;1.90;;
7807;SDS011;3949;49.254;8.894;2023-04-24T04:42:31;2.40;;;2.20;;
7807;SDS011;3949;49.254;8.894;2023-04-24T04:44:59;2.30;;;2.10;;
7807;SDS011;3949;49.254;8.894;2023-04-24T04:47:25;3.30;;;2.10;;
7807;SDS011;3949;49.254;8.894;2023-04-24T04:49:52;4.60;;;1.97;;
7807;SDS011;3949;49.254;8.894;2023-04-24T04:52:18;2.93;;;2.20;;
7807;SDS011;3949;49.254;8.894;2023-04-24T04:54:44;2.10;;;2.00;;
7807;SDS011;3949;49.254;8.894;2023-04-24T04:57:11;2.17;;;2.00;;
7807;SDS011;3949;49.254;8.894;2023-04-24T04:59:37;2.63;;;2.43;;
7807;SDS011;3949;49.254;8.894;2023-04-24T05:02:03;3.87;;;2.40;;
7807;SDS011;3949;49.254;8.894;2023-04-24T05:04:29;3.00;;;2.53;;
7807;SDS011;3949;49.254;8.894;2023-04-24T05:06:56;3.10;;;2.53;;
7807;SDS011;3949;49.254;8.894;2023-04-24T05:09:22;2.97;;;2.40;;
7807;SDS011;3949;49.254;8.894;2023-04-24T05:11:48;2.90;;;2.57;;
7807;SDS011;3949;49.254;8.894;2023-04-24T05:14:14;2.80;;;2.60;;
7807;SDS011;3949;49.254;8.894;2023-04-24T05:16:39;2.80;;;2.60;;
7807;SDS011;3949;49.254;8.894;2023-04-24T05:19:05;3.40;;;2.70;;
7807;SDS011;3949;49.254;8.894;2023-04-24T05:21:31;4.40;;;2.87;;
7807;SDS011;3949;49.254;8.894;2023-04-24T05:23:57;3.07;;;2.77;;
7807;SDS011;3949;49.254;8.894;2023-04-24T05:26:23;3.43;;;2.63;;
7807;SDS011;3949;49.254;8.894;2023-04-24T05:28:49;3.70;;;3.10;;
7807;SDS011;3949;49.254;8.894;2023-04-24T05:31:16;3.50;;;3.20;;
7807;SDS011;3949;49.254;8.894;2023-04-24T05:33:42;3.23;;;2.80;;
7807;SDS011;3949;49.254;8.894;2023-04-24T05:36:08;3.50;;;3.20;;
7807;SDS011;3949;49.254;8.894;2023-04-24T05:38:35;4.63;;;2.97;;
7807;SDS011;3949;49.254;8.894;2023-04-24T05:41:01;4.27;;;3.10;;
7807;SDS011;3949;49.254;8.894;2023-04-24T05:43:27;4.17;;;3.00;;
7807;SDS011;3949;49.254;8.894;2023-04-24T05:45:53;3.50;;;3.20;;
7807;SDS011;3949;49.254;8.894;2023-04-24T05:48:19;3.37;;;3.07;;
7807;SDS011;3949;49.254;8.894;2023-04-24T05:50:46;4.30;;;3.00;;
7807;SDS011;3949;49.254;8.894;2023-04-24T05:53:12;3.23;;;2.93;;
7807;SDS011;3949;49.254;8.894;2023-04-24T05:55:38;3.70;;;3.30;;
7807;SDS011;3949;49.254;8.894;2023-04-24T05:58:05;3.80;;;3.10;;
7807;SDS011;3949;49.254;8.894;2023-04-24T06:00:31;4.63;;;3.20;;
7807;SDS011;3949;49.254;8.894;2023-04-24T06:02:58;3.40;;;3.10;;
7807;SDS011;3949;49.254;8.894;2023-04-24T06:05:23;4.33;;;3.47;;
7807;SDS011;3949;49.254;8.894;2023-04-24T06:07:50;4.33;;;3.00;;
7807;SDS011;3949;49.254;8.894;2023-04-24T06:10:16;3.47;;;3.13;;
7807;SDS011;3949;49.254;8.894;2023-04-24T06:12:42;4.37;;;3.20;;
7807;SDS011;3949;49.254;8.894;2023-04-24T06:15:08;3.77;;;3.10;;
7807;SDS011;3949;49.254;8.894;2023-04-24T06:17:34;3.17;;;2.87;;
7807;SDS011;3949;49.254;8.894;2023-04-24T06:20:00;2.90;;;2.70;;
7807;SDS011;3949;49.254;8.894;2023-04-24T06:22:28;3.40;;;2.77;;
7807;SDS011;3949;49.254;8.894;2023-04-24T06:24:54;3.77;;;2.93;;
7807;SDS011;3949;49.254;8.894;2023-04-24T06:27:20;3.30;;;3.00;;
7807;SDS011;3949;49.254;8.894;2023-04-24T06:29:46;4.30;;;2.80;;
7807;SDS011;3949;49.254;8.894;2023-04-24T06:32:19;2.90;;;2.70;;
7807;SDS011;3949;49.254;8.894;2023-04-24T06:34:45;4.30;;;2.70;;
7807;SDS011;3949;49.254;8.894;2023-04-24T06:37:11;2.87;;;2.63;;
7807;SDS011;3949;49.254;8.894;2023-04-24T06:39:37;3.00;;;2.80;;
7807;SDS011;3949;49.254;8.894;2023-04-24T06:42:02;2.90;;;2.70;;
7807;SDS011;3949;49.254;8.894;2023-04-24T06:44:28;2.83;;;2.63;;
7807;SDS011;3949;49.254;8.894;2023-04-24T06:46:54;2.60;;;2.40;;
7807;SDS011;3949;49.254;8.894;2023-04-24T06:49:20;2.80;;;2.57;;
7807;SDS011;3949;49.254;8.894;2023-04-24T06:51:46;2.73;;;2.53;;
7807;SDS011;3949;49.254;8.894;2023-04-24T06:54:12;4.17;;;3.87;;
7807;SDS011;3949;49.254;8.894;2023-04-24T06:56:38;2.80;;;2.20;;
7807;SDS011;3949;49.254;8.894;2023-04-24T06:59:04;3.70;;;2.30;;
7807;SDS011;3949;49.254;8.894;2023-04-24T07:01:30;2.57;;;2.33;;
7807;SDS011;3949;49.254;8.894;2023-04-24T07:03:56;2.57;;;2.20;;
7807;SDS011;3949;49.254;8.894;2023-04-24T07:06:22;2.40;;;2.20;;
7807;SDS011;3949;49.254;8.894;2023-04-24T07:08:49;2.40;;;2.20;;
7807;SDS011;3949;49.254;8.894;2023-04-24T07:11:15;3.30;;;2.20;;
7807;SDS011;3949;49.254;8.894;2023-04-24T07:13:41;2.67;;;2.17;;
7807;SDS011;3949;49.254;8.894;2023-04-24T07:16:07;3.03;;;2.17;;
7807;SDS011;3949;49.254;8.894;2023-04-24T07:18:33;2.60;;;2.33;;
7807;SDS011;3949;49.254;8.894;2023-04-24T07:20:59;2.90;;;2.10;;
7807;SDS011;3949;49.254;8.894;2023-04-24T07:23:25;2.30;;;2.10;;
7807;SDS011;3949;49.254;8.894;2023-04-24T07:25:52;2.10;;;1.90;;
7807;SDS011;3949;49.254;8.894;2023-04-24T07:28:18;3.67;;;2.00;;
7807;SDS011;3949;49.254;8.894;2023-04-24T07:30:44;2.40;;;1.70;;
7807;SDS011;3949;49.254;8.894;2023-04-24T07:33:10;2.83;;;1.83;;
7807;SDS011;3949;49.254;8.894;2023-04-24T07:35:38;1.70;;;1.57;;
7807;SDS011;3949;49.254;8.894;2023-04-24T07:38:04;1.73;;;1.63;;
7807;SDS011;3949;49.254;8.894;2023-04-24T07:40:30;2.40;;;1.87;;
7807;SDS011;3949;49.254;8.894;2023-04-24T07:42:56;2.00;;;1.80;;
7807;SDS011;3949;49.254;8.894;2023-04-24T07:45:22;2.27;;;1.70;;
7807;SDS011;3949;49.254;8.894;2023-04-24T07:47:50;1.93;;;1.50;;
7807;SDS011;3949;49.254;8.894;2023-04-24T07:50:17;3.20;;;1.50;;
7807;SDS011;3949;49.254;8.894;2023-04-24T07:52:42;2.70;;;1.70;;
7807;SDS011;3949;49.254;8.894;2023-04-24T07:55:08;1.70;;;1.60;;
7807;SDS011;3949;49.254;8.894;2023-04-24T07:57:35;2.03;;;1.37;;
7807;SDS011;3949;49.254;8.894;2023-04-24T08:00:01;1.73;;;1.50;;
7807;SDS011;3949;49.254;8.894;2023-04-24T08:02:27;1.93;;;1.40;;
7807;SDS011;3949;49.254;8.894;2023-04-24T08:04:54;1.50;;;1.40;;
7807;SDS011;3949;49.254;8.894;2023-04-24T08:07:20;1.67;;;1.30;;
7807;SDS011;3949;49.254;8.894;2023-04-24T08:09:46;1.27;;;1.17;;
7807;SDS011;3949;49.254;8.894;2023-04-24T08:12:12;1.17;;;1.17;;
7807;SDS011;3949;49.254;8.894;2023-04-24T08:14:38;1.93;;;1.73;;
7807;SDS011;3949;49.254;8.894;2023-04-24T08:17:04;1.57;;;1.47;;
7807;SDS011;3949;49.254;8.894;2023-04-24T08:19:30;1.50;;;1.40;;
7807;SDS011;3949;49.254;8.894;2023-04-24T08:21:56;2.90;;;1.47;;
7807;SDS011;3949;49.254;8.894;2023-04-24T08:24:22;1.50;;;1.40;;
7807;SDS011;3949;49.254;8.894;2023-04-24T08:26:48;2.80;;;1.73;;
7807;SDS011;3949;49.254;8.894;2023-04-24T08:29:16;1.43;;;1.33;;
7807;SDS011;3949;49.254;8.894;2023-04-24T08:31:42;1.63;;;1.50;;
7807;SDS011;3949;49.254;8.894;2023-04-24T08:34:09;2.03;;;1.70;;
7807;SDS011;3949;49.254;8.894;2023-04-24T08:36:35;3.03;;;1.60;;
7807;SDS011;3949;49.254;8.894;2023-04-24T08:39:01;1.40;;;1.37;;
7807;SDS011;3949;49.254;8.894;2023-04-24T08:41:27;1.50;;;1.40;;
7807;SDS011;3949;49.254;8.894;2023-04-24T08:43:53;2.93;;;1.50;;
7807;SDS011;3949;49.254;8.894;2023-04-24T08:46:20;1.50;;;1.40;;
7807;SDS011;3949;49.254;8.894;2023-04-24T08:48:46;1.53;;;1.43;;
7807;SDS011;3949;49.254;8.894;2023-04-24T08:51:15;2.53;;;1.53;;
7807;SDS011;3949;49.254;8.894;2023-04-24T08:53:41;1.60;;;1.50;;
7807;SDS011;3949;49.254;8.894;2023-04-24T08:56:07;1.50;;;1.40;;
7807;SDS011;3949;49.254;8.894;2023-04-24T08:58:33;1.47;;;1.37;;
7807;SDS011;3949;49.254;8.894;2023-04-24T09:00:59;1.57;;;1.47;;
7807;SDS011;3949;49.254;8.894;2023-04-24T09:03:27;1.53;;;1.23;;
7807;SDS011;3949;49.254;8.894;2023-04-24T09:05:53;1.50;;;1.40;;
7807;SDS011;3949;49.254;8.894;2023-04-24T09:08:20;1.43;;;1.33;;
7807;SDS011;3949;49.254;8.894;2023-04-24T09:10:49;1.90;;;1.50;;
7807;SDS011;3949;49.254;8.894;2023-04-24T09:13:15;1.20;;;1.20;;
7807;SDS011;3949;49.254;8.894;2023-04-24T09:15:42;1.33;;;1.23;;
7807;SDS011;3949;49.254;8.894;2023-04-24T09:18:08;3.50;;;1.50;;
7807;SDS011;3949;49.254;8.894;2023-04-24T09:20:34;1.90;;;1.20;;
7807;SDS011;3949;49.254;8.894;2023-04-24T09:23:01;1.40;;;1.30;;
7807;SDS011;3949;49.254;8.894;2023-04-24T09:25:31;1.70;;;1.60;;
7807;SDS011;3949;49.254;8.894;2023-04-24T09:28:01;1.70;;;1.60;;
7807;SDS011;3949;49.254;8.894;2023-04-24T09:30:28;3.03;;;1.37;;
7807;SDS011;3949;49.254;8.894;2023-04-24T09:35:52;2.33;;;1.63;;
7807;SDS011;3949;49.254;8.894;2023-04-24T09:38:18;1.40;;;1.30;;
7807;SDS011;3949;49.254;8.894;2023-04-24T09:40:44;1.30;;;1.20;;
7807;SDS011;3949;49.254;8.894;2023-04-24T09:43:10;2.80;;;1.80;;
7807;SDS011;3949;49.254;8.894;2023-04-24T09:45:37;1.50;;;1.40;;
7807;SDS011;3949;49.254;8.894;2023-04-24T09:48:04;2.53;;;1.60;;
7807;SDS011;3949;49.254;8.894;2023-04-24T09:50:31;1.57;;;1.30;;
7807;SDS011;3949;49.254;8.894;2023-04-24T09:52:59;3.47;;;1.57;;
7807;SDS011;3949;49.254;8.894;2023-04-24T09:55:26;2.43;;;1.90;;
7807;SDS011;3949;49.254;8.894;2023-04-24T09:57:53;3.87;;;2.10;;
7807;SDS011;3949;49.254;8.894;2023-04-24T10:00:30;2.60;;;1.90;;
7807;SDS011;3949;49.254;8.894;2023-04-24T10:03:05;2.47;;;1.80;;
7807;SDS011;3949;49.254;8.894;2023-04-24T10:05:32;2.10;;;1.90;;
7807;SDS011;3949;49.254;8.894;2023-04-24T10:08:02;3.07;;;2.20;;
7807;SDS011;3949;49.254;8.894;2023-04-24T10:10:28;3.23;;;1.97;;
7807;SDS011;3949;49.254;8.894;2023-04-24T10:12:54;3.87;;;2.17;;
7807;SDS011;3949;49.254;8.894;2023-04-24T10:15:21;3.23;;;2.93;;
7807;SDS011;3949;49.254;8.894;2023-04-24T10:17:48;2.47;;;2.20;;
7807;SDS011;3949;49.254;8.894;2023-04-24T10:20:21;2.17;;;2.00;;
7807;SDS011;3949;49.254;8.894;2023-04-24T10:22:51;2.67;;;2.27;;
7807;SDS011;3949;49.254;8.894;2023-04-24T10:25:21;4.40;;;2.20;;
7807;SDS011;3949;49.254;8.894;2023-04-24T10:27:47;2.30;;;2.10;;
7807;SDS011;3949;49.254;8.894;2023-04-24T10:30:14;2.67;;;2.27;;
7807;SDS011;3949;49.254;8.894;2023-04-24T10:32:43;2.30;;;2.10;;
7807;SDS011;3949;49.254;8.894;2023-04-24T10:35:12;2.60;;;2.40;;
7807;SDS011;3949;49.254;8.894;2023-04-24T10:37:45;2.60;;;2.20;;
7807;SDS011;3949;49.254;8.894;2023-04-24T10:40:12;2.40;;;2.20;;
7807;SDS011;3949;49.254;8.894;2023-04-24T10:43:05;2.30;;;2.10;;
7807;SDS011;3949;49.254;8.894;2023-04-24T10:45:32;3.23;;;1.90;;
7807;SDS011;3949;49.254;8.894;2023-04-24T10:48:26;3.13;;;2.23;;
7807;SDS011;3949;49.254;8.894;2023-04-24T10:50:51;2.77;;;2.37;;
7807;SDS011;3949;49.254;8.894;2023-04-24T10:53:21;2.93;;;1.97;;
7807;SDS011;3949;49.254;8.894;2023-04-24T10:58:24;2.50;;;2.30;;
7807;SDS011;3949;49.254;8.894;2023-04-24T11:00:57;2.70;;;2.50;;
7807;SDS011;3949;49.254;8.894;2023-04-24T11:03:24;3.00;;;2.80;;
7807;SDS011;3949;49.254;8.894;2023-04-24T11:05:51;3.70;;;2.90;;
7807;SDS011;3949;49.254;8.894;2023-04-24T11:08:22;3.57;;;3.27;;
7807;SDS011;3949;49.254;8.894;2023-04-24T11:10:58;3.47;;;3.17;;
7807;SDS011;3949;49.254;8.894;2023-04-24T11:14:02;3.63;;;3.33;;
7807;SDS011;3949;49.254;8.894;2023-04-24T11:16:14;3.70;;;3.40;;
7807;SDS011;3949;49.254;8.894;2023-04-24T11:18:51;2.80;;;2.50;;
7807;SDS011;3949;49.254;8.894;2023-04-24T11:21:19;2.50;;;2.30;;
7807;SDS011;3949;49.254;8.894;2023-04-24T11:23:51;2.60;;;2.40;;
7807;SDS011;3949;49.254;8.894;2023-04-24T11:26:18;2.70;;;2.50;;
7807;SDS011;3949;49.254;8.894;2023-04-24T11:28:46;2.70;;;2.50;;
7807;SDS011;3949;49.254;8.894;2023-04-24T11:33:56;2.80;;;2.60;;
7807;SDS011;3949;49.254;8.894;2023-04-24T11:36:31;2.97;;;2.40;;
7807;SDS011;3949;49.254;8.894;2023-04-24T11:38:59;2.87;;;2.43;;
7807;SDS011;3949;49.254;8.894;2023-04-24T11:41:28;3.80;;;2.30;;
7807;SDS011;3949;49.254;8.894;2023-04-24T11:43:55;2.83;;;2.50;;
7807;SDS011;3949;49.254;8.894;2023-04-24T11:46:31;4.10;;;3.03;;
7807;SDS011;3949;49.254;8.894;2023-04-24T11:49:02;3.77;;;2.60;;
7807;SDS011;3949;49.254;8.894;2023-04-24T11:51:37;2.90;;;2.60;;
7807;SDS011;3949;49.254;8.894;2023-04-24T11:54:07;3.00;;;2.70;;
7807;SDS011;3949;49.254;8.894;2023-04-24T11:56:33;2.87;;;2.40;;
7807;SDS011;3949;49.254;8.894;2023-04-24T11:59:02;4.40;;;2.47;;
7807;SDS011;3949;49.254;8.894;2023-04-24T12:01:41;3.13;;;2.57;;
7807;SDS011;3949;49.254;8.894;2023-04-24T12:04:08;2.50;;;2.30;;
7807;SDS011;3949;49.254;8.894;2023-04-24T12:06:36;3.20;;;2.70;;
7807;SDS011;3949;49.254;8.894;2023-04-24T12:09:22;2.97;;;2.23;;
7807;SDS011;3949;49.254;8.894;2023-04-24T12:11:55;3.03;;;2.30;;
7807;SDS011;3949;49.254;8.894;2023-04-24T12:14:24;3.13;;;2.13;;
7807;SDS011;3949;49.254;8.894;2023-04-24T12:16:53;2.30;;;2.10;;
7807;SDS011;3949;49.254;8.894;2023-04-24T12:19:20;2.90;;;2.50;;
7807;SDS011;3949;49.254;8.894;2023-04-24T12:21:58;3.67;;;2.30;;
7807;SDS011;3949;49.254;8.894;2023-04-24T12:24:25;3.73;;;2.50;;
7807;SDS011;3949;49.254;8.894;2023-04-24T12:26:53;2.63;;;2.40;;
7807;SDS011;3949;49.254;8.894;2023-04-24T12:29:29;2.97;;;2.50;;
7807;SDS011;3949;49.254;8.894;2023-04-24T12:31:57;2.63;;;2.27;;
7807;SDS011;3949;49.254;8.894;2023-04-24T12:34:32;3.27;;;2.77;;
7807;SDS011;3949;49.254;8.894;2023-04-24T12:37:09;2.50;;;2.30;;
7807;SDS011;3949;49.254;8.894;2023-04-24T12:39:35;2.70;;;2.30;;
7807;SDS011;3949;49.254;8.894;2023-04-24T12:42:10;2.47;;;2.20;;
7807;SDS011;3949;49.254;8.894;2023-04-24T12:44:39;3.30;;;2.10;;
7807;SDS011;3949;49.254;8.894;2023-04-24T12:47:05;2.57;;;2.37;;
7807;SDS011;3949;49.254;8.894;2023-04-24T12:49:32;3.90;;;2.43;;
7807;SDS011;3949;49.254;8.894;2023-04-24T12:52:04;3.00;;;2.40;;
7807;SDS011;3949;49.254;8.894;2023-04-24T12:54:32;2.50;;;2.30;;
7807;SDS011;3949;49.254;8.894;2023-04-24T12:56:58;2.80;;;2.20;;
7807;SDS011;3949;49.254;8.894;2023-04-24T12:59:25;2.00;;;1.80;;
7807;SDS011;3949;49.254;8.894;2023-04-24T13:01:51;2.57;;;2.37;;
7807;SDS011;3949;49.254;8.894;2023-04-24T13:04:17;3.30;;;2.20;;
7807;SDS011;3949;49.254;8.894;2023-04-24T13:06:43;2.53;;;2.30;;
7807;SDS011;3949;49.254;8.894;2023-04-24T13:09:09;3.50;;;2.40;;
7807;SDS011;3949;49.254;8.894;2023-04-24T13:11:35;3.13;;;2.30;;
7807;SDS011;3949;49.254;8.894;2023-04-24T13:14:01;2.57;;;2.20;;
7807;SDS011;3949;49.254;8.894;2023-04-24T13:16:27;4.07;;;2.50;;
7807;SDS011;3949;49.254;8.894;2023-04-24T13:18:53;3.13;;;2.30;;
7807;SDS011;3949;49.254;8.894;2023-04-24T13:21:19;3.40;;;2.43;;
7807;SDS011;3949;49.254;8.894;2023-04-24T13:23:45;2.87;;;2.23;;
7807;SDS011;3949;49.254;8.894;2023-04-24T13:26:11;4.70;;;2.30;;
7807;SDS011;3949;49.254;8.894;2023-04-24T13:28:37;2.27;;;2.17;;
7807;SDS011;3949;49.254;8.894;2023-04-24T13:31:03;1.90;;;1.77;;
7807;SDS011;3949;49.254;8.894;2023-04-24T13:33:29;2.37;;;2.17;;
7807;SDS011;3949;49.254;8.894;2023-04-24T13:35:55;2.67;;;2.47;;
7807;SDS011;3949;49.254;8.894;2023-04-24T13:38:21;2.30;;;2.10;;
7807;SDS011;3949;49.254;8.894;2023-04-24T13:40:48;2.83;;;2.13;;
7807;SDS011;3949;49.254;8.894;2023-04-24T13:43:14;4.07;;;2.10;;
7807;SDS011;3949;49.254;8.894;2023-04-24T13:45:40;2.53;;;2.27;;
7807;SDS011;3949;49.254;8.894;2023-04-24T13:48:06;2.70;;;2.20;;
7807;SDS011;3949;49.254;8.894;2023-04-24T13:50:37;2.50;;;2.30;;
7807;SDS011;3949;49.254;8.894;2023-04-24T13:53:03;3.17;;;2.83;;
7807;SDS011;3949;49.254;8.894;2023-04-24T13:55:29;3.20;;;2.27;;
7807;SDS011;3949;49.254;8.894;2023-04-24T13:57:56;2.63;;;2.40;;
7807;SDS011;3949;49.254;8.894;2023-04-24T14:00:22;2.30;;;2.10;;
7807;SDS011;3949;49.254;8.894;2023-04-24T14:02:48;2.30;;;2.20;;
7807;SDS011;3949;49.254;8.894;2023-04-24T14:05:14;2.30;;;2.10;;
7807;SDS011;3949;49.254;8.894;2023-04-24T14:07:40;2.30;;;2.10;;
7807;SDS011;3949;49.254;8.894;2023-04-24T14:10:06;4.27;;;3.60;;
7807;SDS011;3949;49.254;8.894;2023-04-24T14:12:33;2.63;;;2.27;;
7807;SDS011;3949;49.254;8.894;2023-04-24T14:14:59;2.90;;;2.57;;
7807;SDS011;3949;49.254;8.894;2023-04-24T14:17:26;2.20;;;2.00;;
7807;SDS011;3949;49.254;8.894;2023-04-24T14:19:52;3.13;;;2.33;;
7807;SDS011;3949;49.254;8.894;2023-04-24T14:22:21;2.93;;;2.40;;
7807;SDS011;3949;49.254;8.894;2023-04-24T14:24:47;2.40;;;2.20;;
7807;SDS011;3949;49.254;8.894;2023-04-24T14:27:13;2.57;;;2.20;;
7807;SDS011;3949;49.254;8.894;2023-04-24T14:29:39;2.10;;;2.00;;
7807;SDS011;3949;49.254;8.894;2023-04-24T14:32:04;2.97;;;2.43;;
7807;SDS011;3949;49.254;8.894;2023-04-24T14:34:31;3.53;;;2.37;;
7807;SDS011;3949;49.254;8.894;2023-04-24T14:36:57;2.70;;;2.23;;
7807;SDS011;3949;49.254;8.894;2023-04-24T14:39:23;2.40;;;2.20;;
7807;SDS011;3949;49.254;8.894;2023-04-24T14:41:49;3.17;;;2.70;;
7807;SDS011;3949;49.254;8.894;2023-04-24T14:44:15;2.67;;;2.47;;
7807;SDS011;3949;49.254;8.894;2023-04-24T14:46:42;2.47;;;2.10;;
7807;SDS011;3949;49.254;8.894;2023-04-24T14:49:08;2.87;;;2.60;;
7807;SDS011;3949;49.254;8.894;2023-04-24T14:51:35;2.67;;;2.33;;
7807;SDS011;3949;49.254;8.894;2023-04-24T14:54:01;2.00;;;1.90;;
7807;SDS011;3949;49.254;8.894;2023-04-24T14:56:28;2.30;;;1.93;;
7807;SDS011;3949;49.254;8.894;2023-04-24T14:58:53;2.60;;;2.23;;
7807;SDS011;3949;49.254;8.894;2023-04-24T15:01:20;2.40;;;2.10;;
7807;SDS011;3949;49.254;8.894;2023-04-24T15:03:47;2.83;;;2.10;;
7807;SDS011;3949;49.254;8.894;2023-04-24T15:06:13;2.40;;;2.07;;
7807;SDS011;3949;49.254;8.894;2023-04-24T15:08:39;2.83;;;2.53;;
7807;SDS011;3949;49.254;8.894;2023-04-24T15:11:04;2.50;;;2.30;;
7807;SDS011;3949;49.254;8.894;2023-04-24T15:13:31;2.77;;;2.17;;
7807;SDS011;3949;49.254;8.894;2023-04-24T15:15:57;4.53;;;3.27;;
7807;SDS011;3949;49.254;8.894;2023-04-24T15:18:23;2.40;;;2.20;;
7807;SDS011;3949;49.254;8.894;2023-04-24T15:20:49;2.47;;;2.27;;
7807;SDS011;3949;49.254;8.894;2023-04-24T15:23:15;2.83;;;2.30;;